sensor_id;sensor_type;location;lat;lon;timestamp;temperature;humidity
76211;DHT22;65003;49.518;11.280;2022-11-24T00:01:01;7.30;84.80
76211;DHT22;65003;49.518;11.280;2022-11-24T00:03:27;7.20;85.60
76211;DHT22;65003;49.518;11.280;2022-11-24T00:05:53;7.10;86.00
76211;DHT22;65003;49.518;11.280;2022-11-24T00:08:20;7.20;85.90
76211;DHT22;65003;49.518;11.280;2022-11-24T00:10:46;7.20;85.70
76211;DHT22;65003;49.518;11.280;2022-11-24T00:13:13;7.30;85.50
76211;DHT22;65003;49.518;11.280;2022-11-24T00:15:39;7.40;85.10
76211;DHT22;65003;49.518;11.280;2022-11-24T00:18:06;7.40;85.00
76211;DHT22;65003;49.518;11.280;2022-11-24T00:20:33;7.40;85.70
76211;DHT22;65003;49.518;11.280;2022-11-24T00:22:59;7.40;85.30
76211;DHT22;65003;49.518;11.280;2022-11-24T00:25:26;7.40;85.40
76211;DHT22;65003;49.518;11.280;2022-11-24T00:27:52;7.40;85.30
76211;DHT22;65003;49.518;11.280;2022-11-24T00:30:19;7.40;85.50
76211;DHT22;65003;49.518;11.280;2022-11-24T00:32:45;7.40;85.40
76211;DHT22;65003;49.518;11.280;2022-11-24T00:35:12;7.40;85.40
76211;DHT22;65003;49.518;11.280;2022-11-24T00:37:39;7.40;85.40
76211;DHT22;65003;49.518;11.280;2022-11-24T00:40:06;7.40;85.30
76211;DHT22;65003;49.518;11.280;2022-11-24T00:42:33;7.50;85.40
76211;DHT22;65003;49.518;11.280;2022-11-24T00:44:59;7.40;86.20
76211;DHT22;65003;49.518;11.280;2022-11-24T00:47:26;7.40;85.80
76211;DHT22;65003;49.518;11.280;2022-11-24T00:49:53;7.50;85.70
76211;DHT22;65003;49.518;11.280;2022-11-24T00:52:19;7.40;85.80
76211;DHT22;65003;49.518;11.280;2022-11-24T00:54:46;7.40;86.00
76211;DHT22;65003;49.518;11.280;2022-11-24T00:57:12;7.30;86.20
76211;DHT22;65003;49.518;11.280;2022-11-24T00:59:39;7.30;86.30
76211;DHT22;65003;49.518;11.280;2022-11-24T01:02:05;7.30;86.50
76211;DHT22;65003;49.518;11.280;2022-11-24T01:04:32;7.30;86.70
76211;DHT22;65003;49.518;11.280;2022-11-24T01:06:59;7.40;86.60
76211;DHT22;65003;49.518;11.280;2022-11-24T01:09:25;7.40;86.50
76211;DHT22;65003;49.518;11.280;2022-11-24T01:11:52;7.40;86.60
76211;DHT22;65003;49.518;11.280;2022-11-24T01:14:24;7.40;86.60
76211;DHT22;65003;49.518;11.280;2022-11-24T01:16:51;7.40;86.90
76211;DHT22;65003;49.518;11.280;2022-11-24T01:19:17;7.40;86.40
76211;DHT22;65003;49.518;11.280;2022-11-24T01:21:44;7.40;86.10
76211;DHT22;65003;49.518;11.280;2022-11-24T01:24:10;7.40;86.30
76211;DHT22;65003;49.518;11.280;2022-11-24T01:26:37;7.40;86.70
76211;DHT22;65003;49.518;11.280;2022-11-24T01:29:04;7.30;86.30
76211;DHT22;65003;49.518;11.280;2022-11-24T01:31:30;7.30;86.40
76211;DHT22;65003;49.518;11.280;2022-11-24T01:33:57;7.40;86.60
76211;DHT22;65003;49.518;11.280;2022-11-24T01:36:23;7.40;86.40
76211;DHT22;65003;49.518;11.280;2022-11-24T01:38:50;7.40;86.20
76211;DHT22;65003;49.518;11.280;2022-11-24T01:41:17;7.40;86.10
76211;DHT22;65003;49.518;11.280;2022-11-24T01:43:43;7.40;85.90
76211;DHT22;65003;49.518;11.280;2022-11-24T01:48:50;7.30;86.10
76211;DHT22;65003;49.518;11.280;2022-11-24T01:51:21;7.20;86.20
76211;DHT22;65003;49.518;11.280;2022-11-24T01:53:43;7.30;85.80
76211;DHT22;65003;49.518;11.280;2022-11-24T01:56:09;7.30;86.40
76211;DHT22;65003;49.518;11.280;2022-11-24T01:58:35;7.30;86.70
76211;DHT22;65003;49.518;11.280;2022-11-24T02:01:02;7.30;86.80
76211;DHT22;65003;49.518;11.280;2022-11-24T02:03:30;7.30;87.20
76211;DHT22;65003;49.518;11.280;2022-11-24T02:05:59;7.40;87.20
76211;DHT22;65003;49.518;11.280;2022-11-24T02:08:30;7.40;87.10
76211;DHT22;65003;49.518;11.280;2022-11-24T02:10:54;7.50;87.00
76211;DHT22;65003;49.518;11.280;2022-11-24T02:13:21;7.50;86.90
76211;DHT22;65003;49.518;11.280;2022-11-24T02:15:48;7.60;87.60
76211;DHT22;65003;49.518;11.280;2022-11-24T02:18:14;7.60;86.80
76211;DHT22;65003;49.518;11.280;2022-11-24T02:20:41;7.70;86.70
76211;DHT22;65003;49.518;11.280;2022-11-24T02:23:18;7.70;86.70
76211;DHT22;65003;49.518;11.280;2022-11-24T02:25:48;7.70;86.60
76211;DHT22;65003;49.518;11.280;2022-11-24T02:28:13;7.70;86.70
76211;DHT22;65003;49.518;11.280;2022-11-24T02:30:38;7.70;86.70
76211;DHT22;65003;49.518;11.280;2022-11-24T02:33:05;7.70;86.70
76211;DHT22;65003;49.518;11.280;2022-11-24T02:35:32;7.80;86.90
76211;DHT22;65003;49.518;11.280;2022-11-24T02:37:58;7.80;86.90
76211;DHT22;65003;49.518;11.280;2022-11-24T02:40:26;7.80;86.70
76211;DHT22;65003;49.518;11.280;2022-11-24T02:42:53;7.90;86.60
76211;DHT22;65003;49.518;11.280;2022-11-24T02:45:18;7.90;86.20
76211;DHT22;65003;49.518;11.280;2022-11-24T02:47:45;7.90;86.20
76211;DHT22;65003;49.518;11.280;2022-11-24T02:50:12;7.90;86.30
76211;DHT22;65003;49.518;11.280;2022-11-24T02:52:38;7.90;86.30
76211;DHT22;65003;49.518;11.280;2022-11-24T02:55:05;7.90;86.70
76211;DHT22;65003;49.518;11.280;2022-11-24T02:57:32;7.90;86.50
76211;DHT22;65003;49.518;11.280;2022-11-24T02:59:58;7.90;86.40
76211;DHT22;65003;49.518;11.280;2022-11-24T03:02:25;7.90;86.40
76211;DHT22;65003;49.518;11.280;2022-11-24T03:04:51;7.90;86.60
76211;DHT22;65003;49.518;11.280;2022-11-24T03:07:18;7.90;86.70
76211;DHT22;65003;49.518;11.280;2022-11-24T03:09:44;8.00;86.80
76211;DHT22;65003;49.518;11.280;2022-11-24T03:12:11;8.00;86.80
76211;DHT22;65003;49.518;11.280;2022-11-24T03:14:38;8.00;86.90
76211;DHT22;65003;49.518;11.280;2022-11-24T03:17:04;8.00;87.00
76211;DHT22;65003;49.518;11.280;2022-11-24T03:19:31;8.00;87.20
76211;DHT22;65003;49.518;11.280;2022-11-24T03:21:58;8.00;86.90
76211;DHT22;65003;49.518;11.280;2022-11-24T03:24:24;8.00;87.10
76211;DHT22;65003;49.518;11.280;2022-11-24T03:26:51;8.00;87.30
76211;DHT22;65003;49.518;11.280;2022-11-24T03:29:17;7.90;87.50
76211;DHT22;65003;49.518;11.280;2022-11-24T03:31:44;7.80;88.10
76211;DHT22;65003;49.518;11.280;2022-11-24T03:34:10;7.80;88.30
76211;DHT22;65003;49.518;11.280;2022-11-24T03:36:37;7.90;88.30
76211;DHT22;65003;49.518;11.280;2022-11-24T03:39:03;8.00;88.10
76211;DHT22;65003;49.518;11.280;2022-11-24T03:41:30;8.00;88.00
76211;DHT22;65003;49.518;11.280;2022-11-24T03:43:56;8.00;87.90
76211;DHT22;65003;49.518;11.280;2022-11-24T03:46:23;8.10;87.90
76211;DHT22;65003;49.518;11.280;2022-11-24T03:48:50;8.10;87.70
76211;DHT22;65003;49.518;11.280;2022-11-24T03:51:16;8.10;87.60
76211;DHT22;65003;49.518;11.280;2022-11-24T03:53:43;8.20;87.50
76211;DHT22;65003;49.518;11.280;2022-11-24T03:56:09;8.20;87.40
76211;DHT22;65003;49.518;11.280;2022-11-24T03:58:37;8.20;87.30
76211;DHT22;65003;49.518;11.280;2022-11-24T04:01:03;8.30;87.30
76211;DHT22;65003;49.518;11.280;2022-11-24T04:03:30;8.30;87.80
76211;DHT22;65003;49.518;11.280;2022-11-24T04:05:57;8.30;87.30
76211;DHT22;65003;49.518;11.280;2022-11-24T04:08:23;8.20;87.40
76211;DHT22;65003;49.518;11.280;2022-11-24T04:10:51;8.20;87.50
76211;DHT22;65003;49.518;11.280;2022-11-24T04:13:18;8.20;87.50
76211;DHT22;65003;49.518;11.280;2022-11-24T04:15:43;8.20;87.70
76211;DHT22;65003;49.518;11.280;2022-11-24T04:18:10;8.20;87.60
76211;DHT22;65003;49.518;11.280;2022-11-24T04:20:36;8.20;87.70
76211;DHT22;65003;49.518;11.280;2022-11-24T04:23:03;8.20;87.90
76211;DHT22;65003;49.518;11.280;2022-11-24T04:25:29;8.20;87.80
76211;DHT22;65003;49.518;11.280;2022-11-24T04:27:56;8.20;87.80
76211;DHT22;65003;49.518;11.280;2022-11-24T04:30:23;8.20;87.90
76211;DHT22;65003;49.518;11.280;2022-11-24T04:32:49;8.20;87.80
76211;DHT22;65003;49.518;11.280;2022-11-24T04:35:16;8.10;88.00
76211;DHT22;65003;49.518;11.280;2022-11-24T04:37:42;8.10;88.20
76211;DHT22;65003;49.518;11.280;2022-11-24T04:40:09;8.10;88.50
76211;DHT22;65003;49.518;11.280;2022-11-24T04:42:35;8.10;88.50
76211;DHT22;65003;49.518;11.280;2022-11-24T04:45:03;8.20;88.30
76211;DHT22;65003;49.518;11.280;2022-11-24T04:47:29;8.20;88.30
76211;DHT22;65003;49.518;11.280;2022-11-24T04:49:55;8.30;88.20
76211;DHT22;65003;49.518;11.280;2022-11-24T04:52:22;8.30;88.20
76211;DHT22;65003;49.518;11.280;2022-11-24T04:54:49;8.30;88.30
76211;DHT22;65003;49.518;11.280;2022-11-24T04:57:19;8.40;88.30
76211;DHT22;65003;49.518;11.280;2022-11-24T04:59:44;8.40;88.10
76211;DHT22;65003;49.518;11.280;2022-11-24T05:02:11;8.40;88.10
76211;DHT22;65003;49.518;11.280;2022-11-24T05:04:38;8.40;88.10
76211;DHT22;65003;49.518;11.280;2022-11-24T05:07:04;8.40;87.90
76211;DHT22;65003;49.518;11.280;2022-11-24T05:09:31;8.40;87.80
76211;DHT22;65003;49.518;11.280;2022-11-24T05:11:57;8.50;87.80
76211;DHT22;65003;49.518;11.280;2022-11-24T05:14:24;8.50;87.70
76211;DHT22;65003;49.518;11.280;2022-11-24T05:16:50;8.50;87.70
76211;DHT22;65003;49.518;11.280;2022-11-24T05:19:17;8.50;87.60
76211;DHT22;65003;49.518;11.280;2022-11-24T05:21:44;8.50;87.70
76211;DHT22;65003;49.518;11.280;2022-11-24T05:24:10;8.50;87.80
76211;DHT22;65003;49.518;11.280;2022-11-24T05:26:37;8.50;87.90
76211;DHT22;65003;49.518;11.280;2022-11-24T05:29:03;8.50;87.80
76211;DHT22;65003;49.518;11.280;2022-11-24T05:31:30;8.50;87.90
76211;DHT22;65003;49.518;11.280;2022-11-24T05:33:57;8.50;87.90
76211;DHT22;65003;49.518;11.280;2022-11-24T05:36:23;8.50;87.80
76211;DHT22;65003;49.518;11.280;2022-11-24T05:38:55;8.50;87.80
76211;DHT22;65003;49.518;11.280;2022-11-24T05:41:22;8.50;87.90
76211;DHT22;65003;49.518;11.280;2022-11-24T05:43:49;8.60;88.70
76211;DHT22;65003;49.518;11.280;2022-11-24T05:46:15;8.60;88.00
76211;DHT22;65003;49.518;11.280;2022-11-24T05:48:42;8.60;88.10
76211;DHT22;65003;49.518;11.280;2022-11-24T05:51:08;8.50;88.20
76211;DHT22;65003;49.518;11.280;2022-11-24T05:53:35;8.50;88.30
76211;DHT22;65003;49.518;11.280;2022-11-24T05:56:02;8.50;88.20
76211;DHT22;65003;49.518;11.280;2022-11-24T05:58:28;8.60;88.10
76211;DHT22;65003;49.518;11.280;2022-11-24T06:00:55;8.60;88.10
76211;DHT22;65003;49.518;11.280;2022-11-24T06:03:21;8.70;87.80
76211;DHT22;65003;49.518;11.280;2022-11-24T06:05:48;8.70;88.00
76211;DHT22;65003;49.518;11.280;2022-11-24T06:08:14;8.70;88.10
76211;DHT22;65003;49.518;11.280;2022-11-24T06:10:41;8.70;88.10
76211;DHT22;65003;49.518;11.280;2022-11-24T06:13:08;8.70;88.10
76211;DHT22;65003;49.518;11.280;2022-11-24T06:15:34;8.60;88.00
76211;DHT22;65003;49.518;11.280;2022-11-24T06:18:01;8.60;87.90
76211;DHT22;65003;49.518;11.280;2022-11-24T06:20:27;8.60;87.90
76211;DHT22;65003;49.518;11.280;2022-11-24T06:22:56;8.50;87.90
76211;DHT22;65003;49.518;11.280;2022-11-24T06:25:20;8.50;88.00
76211;DHT22;65003;49.518;11.280;2022-11-24T06:27:47;8.50;88.20
76211;DHT22;65003;49.518;11.280;2022-11-24T06:30:14;8.50;88.30
76211;DHT22;65003;49.518;11.280;2022-11-24T06:32:40;8.50;89.40
76211;DHT22;65003;49.518;11.280;2022-11-24T06:35:07;8.50;88.90
76211;DHT22;65003;49.518;11.280;2022-11-24T06:37:34;8.50;88.70
76211;DHT22;65003;49.518;11.280;2022-11-24T06:40:00;8.50;88.60
76211;DHT22;65003;49.518;11.280;2022-11-24T06:42:27;8.50;88.50
76211;DHT22;65003;49.518;11.280;2022-11-24T06:44:53;8.60;87.90
76211;DHT22;65003;49.518;11.280;2022-11-24T06:47:20;8.60;87.70
76211;DHT22;65003;49.518;11.280;2022-11-24T06:49:47;8.60;87.30
76211;DHT22;65003;49.518;11.280;2022-11-24T06:52:13;8.60;87.20
76211;DHT22;65003;49.518;11.280;2022-11-24T06:54:40;8.50;87.50
76211;DHT22;65003;49.518;11.280;2022-11-24T06:57:06;8.50;87.70
76211;DHT22;65003;49.518;11.280;2022-11-24T06:59:33;8.50;87.50
76211;DHT22;65003;49.518;11.280;2022-11-24T07:02:00;8.60;87.20
76211;DHT22;65003;49.518;11.280;2022-11-24T07:04:26;8.70;86.90
76211;DHT22;65003;49.518;11.280;2022-11-24T07:09:13;8.70;86.80
76211;DHT22;65003;49.518;11.280;2022-11-24T07:11:40;8.80;86.10
76211;DHT22;65003;49.518;11.280;2022-11-24T07:14:06;8.80;86.00
76211;DHT22;65003;49.518;11.280;2022-11-24T07:16:33;8.90;85.70
76211;DHT22;65003;49.518;11.280;2022-11-24T07:18:59;9.00;85.30
76211;DHT22;65003;49.518;11.280;2022-11-24T07:21:26;9.00;85.10
76211;DHT22;65003;49.518;11.280;2022-11-24T07:23:53;9.00;85.00
76211;DHT22;65003;49.518;11.280;2022-11-24T07:26:19;9.00;84.90
76211;DHT22;65003;49.518;11.280;2022-11-24T07:28:46;9.00;84.80
76211;DHT22;65003;49.518;11.280;2022-11-24T07:31:14;9.00;84.90
76211;DHT22;65003;49.518;11.280;2022-11-24T07:33:39;9.00;85.10
76211;DHT22;65003;49.518;11.280;2022-11-24T07:36:07;9.00;85.10
76211;DHT22;65003;49.518;11.280;2022-11-24T07:38:33;9.00;85.00
76211;DHT22;65003;49.518;11.280;2022-11-24T07:41:00;9.00;85.00
76211;DHT22;65003;49.518;11.280;2022-11-24T07:43:27;9.00;84.60
76211;DHT22;65003;49.518;11.280;2022-11-24T07:45:53;9.00;84.70
76211;DHT22;65003;49.518;11.280;2022-11-24T07:48:20;9.00;84.70
76211;DHT22;65003;49.518;11.280;2022-11-24T07:50:46;9.00;84.70
76211;DHT22;65003;49.518;11.280;2022-11-24T07:53:13;9.00;84.40
76211;DHT22;65003;49.518;11.280;2022-11-24T07:55:40;9.00;84.70
76211;DHT22;65003;49.518;11.280;2022-11-24T07:58:06;9.00;85.00
76211;DHT22;65003;49.518;11.280;2022-11-24T08:00:33;9.00;84.60
76211;DHT22;65003;49.518;11.280;2022-11-24T08:02:59;9.20;84.00
76211;DHT22;65003;49.518;11.280;2022-11-24T08:05:26;9.40;83.50
76211;DHT22;65003;49.518;11.280;2022-11-24T08:07:52;9.60;82.60
76211;DHT22;65003;49.518;11.280;2022-11-24T08:10:19;9.90;82.10
76211;DHT22;65003;49.518;11.280;2022-11-24T08:12:46;10.10;81.50
76211;DHT22;65003;49.518;11.280;2022-11-24T08:15:12;10.40;80.10
76211;DHT22;65003;49.518;11.280;2022-11-24T08:17:39;10.60;78.90
76211;DHT22;65003;49.518;11.280;2022-11-24T08:20:06;10.60;78.60
76211;DHT22;65003;49.518;11.280;2022-11-24T08:22:33;10.60;79.20
76211;DHT22;65003;49.518;11.280;2022-11-24T08:24:59;10.60;78.70
76211;DHT22;65003;49.518;11.280;2022-11-24T08:27:26;10.60;78.70
76211;DHT22;65003;49.518;11.280;2022-11-24T08:29:53;11.30;79.70
76211;DHT22;65003;49.518;11.280;2022-11-24T08:32:19;10.40;78.90
76211;DHT22;65003;49.518;11.280;2022-11-24T08:34:46;10.30;79.60
76211;DHT22;65003;49.518;11.280;2022-11-24T08:37:12;10.10;80.10
76211;DHT22;65003;49.518;11.280;2022-11-24T08:39:39;9.80;80.50
76211;DHT22;65003;49.518;11.280;2022-11-24T08:42:06;10.10;80.70
76211;DHT22;65003;49.518;11.280;2022-11-24T08:44:32;10.20;80.80
76211;DHT22;65003;49.518;11.280;2022-11-24T08:46:59;10.20;80.40
76211;DHT22;65003;49.518;11.280;2022-11-24T08:49:25;10.20;80.80
76211;DHT22;65003;49.518;11.280;2022-11-24T08:51:52;10.20;80.40
76211;DHT22;65003;49.518;11.280;2022-11-24T08:54:19;10.30;81.00
76211;DHT22;65003;49.518;11.280;2022-11-24T08:56:47;10.40;80.40
76211;DHT22;65003;49.518;11.280;2022-11-24T08:59:12;10.70;79.40
76211;DHT22;65003;49.518;11.280;2022-11-24T09:01:38;10.80;78.40
76211;DHT22;65003;49.518;11.280;2022-11-24T09:04:05;10.90;78.00
76211;DHT22;65003;49.518;11.280;2022-11-24T09:06:32;11.10;77.20
76211;DHT22;65003;49.518;11.280;2022-11-24T09:08:58;11.30;76.70
76211;DHT22;65003;49.518;11.280;2022-11-24T09:11:25;11.60;75.80
76211;DHT22;65003;49.518;11.280;2022-11-24T09:13:52;11.90;74.40
76211;DHT22;65003;49.518;11.280;2022-11-24T09:16:20;12.00;73.60
76211;DHT22;65003;49.518;11.280;2022-11-24T09:18:45;12.00;73.10
76211;DHT22;65003;49.518;11.280;2022-11-24T09:21:12;12.00;72.90
76211;DHT22;65003;49.518;11.280;2022-11-24T09:23:38;11.90;72.90
76211;DHT22;65003;49.518;11.280;2022-11-24T09:26:12;12.00;73.70
76211;DHT22;65003;49.518;11.280;2022-11-24T09:28:37;12.10;72.80
76211;DHT22;65003;49.518;11.280;2022-11-24T09:31:05;11.90;72.90
76211;DHT22;65003;49.518;11.280;2022-11-24T09:33:30;12.00;73.20
76211;DHT22;65003;49.518;11.280;2022-11-24T09:35:57;12.00;73.20
76211;DHT22;65003;49.518;11.280;2022-11-24T09:38:24;12.00;73.20
76211;DHT22;65003;49.518;11.280;2022-11-24T09:40:51;11.80;73.80
76211;DHT22;65003;49.518;11.280;2022-11-24T09:43:36;11.50;73.90
76211;DHT22;65003;49.518;11.280;2022-11-24T09:48:34;11.10;76.60
76211;DHT22;65003;49.518;11.280;2022-11-24T09:50:59;11.00;76.60
76211;DHT22;65003;49.518;11.280;2022-11-24T09:53:37;10.90;76.50
76211;DHT22;65003;49.518;11.280;2022-11-24T09:56:19;10.70;77.00
76211;DHT22;65003;49.518;11.280;2022-11-24T09:58:48;10.60;77.70
76211;DHT22;65003;49.518;11.280;2022-11-24T10:01:16;10.50;78.50
76211;DHT22;65003;49.518;11.280;2022-11-24T10:03:42;10.40;78.40
76211;DHT22;65003;49.518;11.280;2022-11-24T10:06:21;10.40;78.30
76211;DHT22;65003;49.518;11.280;2022-11-24T10:11:37;10.30;78.40
76211;DHT22;65003;49.518;11.280;2022-11-24T10:14:08;10.30;79.30
76211;DHT22;65003;49.518;11.280;2022-11-24T10:16:50;10.20;79.50
76211;DHT22;65003;49.518;11.280;2022-11-24T10:19:26;10.20;78.90
76211;DHT22;65003;49.518;11.280;2022-11-24T10:22:05;10.20;79.40
76211;DHT22;65003;49.518;11.280;2022-11-24T10:25:48;10.30;79.30
76211;DHT22;65003;49.518;11.280;2022-11-24T10:27:25;10.40;79.20
76211;DHT22;65003;49.518;11.280;2022-11-24T10:29:51;10.50;78.60
76211;DHT22;65003;49.518;11.280;2022-11-24T10:32:20;10.40;77.80
76211;DHT22;65003;49.518;11.280;2022-11-24T10:34:46;10.50;78.60
76211;DHT22;65003;49.518;11.280;2022-11-24T10:37:20;10.50;79.20
76211;DHT22;65003;49.518;11.280;2022-11-24T10:40:09;10.60;79.10
76211;DHT22;65003;49.518;11.280;2022-11-24T10:42:36;10.50;78.10
76211;DHT22;65003;49.518;11.280;2022-11-24T10:45:09;10.40;78.90
76211;DHT22;65003;49.518;11.280;2022-11-24T10:47:34;10.30;79.40
76211;DHT22;65003;49.518;11.280;2022-11-24T10:50:20;10.30;80.00
76211;DHT22;65003;49.518;11.280;2022-11-24T10:52:50;10.30;79.70
76211;DHT22;65003;49.518;11.280;2022-11-24T10:55:14;10.30;80.30
76211;DHT22;65003;49.518;11.280;2022-11-24T10:57:41;10.30;80.20
76211;DHT22;65003;49.518;11.280;2022-11-24T11:00:28;10.20;80.30
76211;DHT22;65003;49.518;11.280;2022-11-24T11:02:42;10.20;81.10
76211;DHT22;65003;49.518;11.280;2022-11-24T11:07:47;10.20;81.20
76211;DHT22;65003;49.518;11.280;2022-11-24T11:10:18;10.10;81.20
76211;DHT22;65003;49.518;11.280;2022-11-24T11:12:43;10.00;80.70
76211;DHT22;65003;49.518;11.280;2022-11-24T11:15:22;9.90;81.80
76211;DHT22;65003;49.518;11.280;2022-11-24T11:17:48;9.90;82.30
76211;DHT22;65003;49.518;11.280;2022-11-24T11:20:20;9.90;82.40
76211;DHT22;65003;49.518;11.280;2022-11-24T11:22:45;9.90;82.60
76211;DHT22;65003;49.518;11.280;2022-11-24T11:25:18;9.90;82.90
76211;DHT22;65003;49.518;11.280;2022-11-24T11:27:43;9.90;82.20
76211;DHT22;65003;49.518;11.280;2022-11-24T11:30:18;9.90;82.50
76211;DHT22;65003;49.518;11.280;2022-11-24T11:32:50;9.80;82.90
76211;DHT22;65003;49.518;11.280;2022-11-24T11:35:16;9.80;83.00
76211;DHT22;65003;49.518;11.280;2022-11-24T11:37:42;9.70;83.80
76211;DHT22;65003;49.518;11.280;2022-11-24T11:40:14;9.60;84.40
76211;DHT22;65003;49.518;11.280;2022-11-24T11:42:42;9.50;84.70
76211;DHT22;65003;49.518;11.280;2022-11-24T11:45:14;9.50;85.10
76211;DHT22;65003;49.518;11.280;2022-11-24T11:47:46;9.50;85.40
76211;DHT22;65003;49.518;11.280;2022-11-24T11:50:13;9.60;85.00
76211;DHT22;65003;49.518;11.280;2022-11-24T11:53:04;9.60;85.20
76211;DHT22;65003;49.518;11.280;2022-11-24T11:55:32;9.70;84.40
76211;DHT22;65003;49.518;11.280;2022-11-24T11:59:30;9.70;84.60
76211;DHT22;65003;49.518;11.280;2022-11-24T12:01:10;9.80;84.40
76211;DHT22;65003;49.518;11.280;2022-11-24T12:03:40;9.70;84.40
76211;DHT22;65003;49.518;11.280;2022-11-24T12:09:06;9.80;85.10
76211;DHT22;65003;49.518;11.280;2022-11-24T12:11:32;9.80;84.30
76211;DHT22;65003;49.518;11.280;2022-11-24T12:14:05;9.90;85.00
76211;DHT22;65003;49.518;11.280;2022-11-24T12:16:43;10.00;84.80
76211;DHT22;65003;49.518;11.280;2022-11-24T12:19:11;10.30;84.90
76211;DHT22;65003;49.518;11.280;2022-11-24T12:21:34;10.40;83.20
76211;DHT22;65003;49.518;11.280;2022-11-24T12:24:16;10.40;83.00
76211;DHT22;65003;49.518;11.280;2022-11-24T12:26:51;10.30;82.20
76211;DHT22;65003;49.518;11.280;2022-11-24T12:29:41;10.20;82.90
76211;DHT22;65003;49.518;11.280;2022-11-24T12:32:18;10.10;83.40
76211;DHT22;65003;49.518;11.280;2022-11-24T12:34:46;10.00;84.20
76211;DHT22;65003;49.518;11.280;2022-11-24T12:37:16;10.10;84.40
76211;DHT22;65003;49.518;11.280;2022-11-24T12:39:59;8.70;83.20
76211;DHT22;65003;49.518;11.280;2022-11-24T12:42:25;10.30;83.90
76211;DHT22;65003;49.518;11.280;2022-11-24T12:44:59;10.40;83.50
76211;DHT22;65003;49.518;11.280;2022-11-24T12:47:47;10.50;82.60
76211;DHT22;65003;49.518;11.280;2022-11-24T12:50:17;10.50;82.80
76211;DHT22;65003;49.518;11.280;2022-11-24T12:52:46;10.50;83.10
76211;DHT22;65003;49.518;11.280;2022-11-24T12:55:13;10.60;83.20
76211;DHT22;65003;49.518;11.280;2022-11-24T12:57:40;10.50;82.60
76211;DHT22;65003;49.518;11.280;2022-11-24T13:00:15;10.50;82.80
76211;DHT22;65003;49.518;11.280;2022-11-24T13:02:45;10.40;83.20
76211;DHT22;65003;49.518;11.280;2022-11-24T13:07:57;10.50;82.70
76211;DHT22;65003;49.518;11.280;2022-11-24T13:10:27;10.60;82.50
76211;DHT22;65003;49.518;11.280;2022-11-24T13:12:54;10.60;83.10
76211;DHT22;65003;49.518;11.280;2022-11-24T13:15:19;10.50;82.00
76211;DHT22;65003;49.518;11.280;2022-11-24T13:17:46;10.50;82.00
76211;DHT22;65003;49.518;11.280;2022-11-24T13:20:21;10.40;81.40
76211;DHT22;65003;49.518;11.280;2022-11-24T13:22:48;10.40;82.30
76211;DHT22;65003;49.518;11.280;2022-11-24T13:25:16;10.40;82.40
76211;DHT22;65003;49.518;11.280;2022-11-24T13:27:42;10.40;81.90
76211;DHT22;65003;49.518;11.280;2022-11-24T13:32:56;10.20;82.30
76211;DHT22;65003;49.518;11.280;2022-11-24T13:35:13;10.10;82.80
76211;DHT22;65003;49.518;11.280;2022-11-24T13:37:48;10.10;82.70
76211;DHT22;65003;49.518;11.280;2022-11-24T13:40:36;9.90;82.90
76211;DHT22;65003;49.518;11.280;2022-11-24T13:43:18;9.90;83.40
76211;DHT22;65003;49.518;11.280;2022-11-24T13:45:48;9.90;82.70
76211;DHT22;65003;49.518;11.280;2022-11-24T13:51:08;9.90;82.90
76211;DHT22;65003;49.518;11.280;2022-11-24T13:53:44;9.80;82.10
76211;DHT22;65003;49.518;11.280;2022-11-24T13:56:27;9.80;82.90
76211;DHT22;65003;49.518;11.280;2022-11-24T13:58:57;9.80;83.00
76211;DHT22;65003;49.518;11.280;2022-11-24T14:01:24;9.90;82.30
76211;DHT22;65003;49.518;11.280;2022-11-24T14:03:57;10.00;82.60
76211;DHT22;65003;49.518;11.280;2022-11-24T14:06:29;10.00;82.60
76211;DHT22;65003;49.518;11.280;2022-11-24T14:08:55;10.10;81.80
76211;DHT22;65003;49.518;11.280;2022-11-24T14:11:22;10.00;81.70
76211;DHT22;65003;49.518;11.280;2022-11-24T14:13:48;10.00;82.00
76211;DHT22;65003;49.518;11.280;2022-11-24T14:16:16;10.00;82.00
76211;DHT22;65003;49.518;11.280;2022-11-24T14:18:42;10.00;81.70
76211;DHT22;65003;49.518;11.280;2022-11-24T14:21:33;9.90;82.00
76211;DHT22;65003;49.518;11.280;2022-11-24T14:24:19;9.80;82.10
76211;DHT22;65003;49.518;11.280;2022-11-24T14:26:44;9.80;82.30
76211;DHT22;65003;49.518;11.280;2022-11-24T14:29:19;9.80;82.40
76211;DHT22;65003;49.518;11.280;2022-11-24T14:31:52;9.70;82.40
76211;DHT22;65003;49.518;11.280;2022-11-24T14:34:18;9.60;82.50
76211;DHT22;65003;49.518;11.280;2022-11-24T14:36:44;9.50;83.00
76211;DHT22;65003;49.518;11.280;2022-11-24T14:39:12;9.40;83.60
76211;DHT22;65003;49.518;11.280;2022-11-24T14:41:38;9.40;84.00
76211;DHT22;65003;49.518;11.280;2022-11-24T14:44:11;9.40;84.60
76211;DHT22;65003;49.518;11.280;2022-11-24T14:46:32;9.40;84.40
76211;DHT22;65003;49.518;11.280;2022-11-24T14:48:59;9.40;83.90
76211;DHT22;65003;49.518;11.280;2022-11-24T14:51:30;9.70;84.20
76211;DHT22;65003;49.518;11.280;2022-11-24T14:53:57;9.40;84.00
76211;DHT22;65003;49.518;11.280;2022-11-24T14:56:27;9.40;84.10
76211;DHT22;65003;49.518;11.280;2022-11-24T14:58:53;9.30;84.00
76211;DHT22;65003;49.518;11.280;2022-11-24T15:01:21;9.30;84.20
76211;DHT22;65003;49.518;11.280;2022-11-24T15:03:55;9.20;84.20
76211;DHT22;65003;49.518;11.280;2022-11-24T15:06:17;9.20;84.50
76211;DHT22;65003;49.518;11.280;2022-11-24T15:08:43;9.20;84.70
76211;DHT22;65003;49.518;11.280;2022-11-24T15:11:09;9.20;84.80
76211;DHT22;65003;49.518;11.280;2022-11-24T15:13:36;9.20;84.60
76211;DHT22;65003;49.518;11.280;2022-11-24T15:16:08;9.20;84.60
76211;DHT22;65003;49.518;11.280;2022-11-24T15:18:38;8.40;84.10
76211;DHT22;65003;49.518;11.280;2022-11-24T15:21:02;9.20;84.60
76211;DHT22;65003;49.518;11.280;2022-11-24T15:23:28;9.20;84.10
76211;DHT22;65003;49.518;11.280;2022-11-24T15:25:55;9.20;84.30
76211;DHT22;65003;49.518;11.280;2022-11-24T15:28:22;9.30;84.20
76211;DHT22;65003;49.518;11.280;2022-11-24T15:30:53;9.30;84.20
76211;DHT22;65003;49.518;11.280;2022-11-24T15:33:19;9.30;83.90
76211;DHT22;65003;49.518;11.280;2022-11-24T15:35:46;9.30;83.90
76211;DHT22;65003;49.518;11.280;2022-11-24T15:38:12;9.20;83.70
76211;DHT22;65003;49.518;11.280;2022-11-24T15:40:39;9.20;83.70
76211;DHT22;65003;49.518;11.280;2022-11-24T15:45:42;9.20;83.90
76211;DHT22;65003;49.518;11.280;2022-11-24T15:48:09;9.20;83.80
76211;DHT22;65003;49.518;11.280;2022-11-24T15:50:36;9.20;83.80
76211;DHT22;65003;49.518;11.280;2022-11-24T15:53:03;9.20;83.30
76211;DHT22;65003;49.518;11.280;2022-11-24T15:55:29;9.20;83.30
76211;DHT22;65003;49.518;11.280;2022-11-24T15:57:55;9.20;83.40
76211;DHT22;65003;49.518;11.280;2022-11-24T16:00:22;9.10;83.30